sensor_id;sensor_type;location;lat;lon;timestamp;P1;durP1;ratioP1;P2;durP2;ratioP2
17596;SDS011;8917;50.942;6.946;2023-11-21T00:00:14;5.13;;;3.60;;
17596;SDS011;8917;50.942;6.946;2023-11-21T00:02:41;4.97;;;3.70;;
17596;SDS011;8917;50.942;6.946;2023-11-21T00:05:10;6.57;;;4.50;;
17596;SDS011;8917;50.942;6.946;2023-11-21T00:07:39;9.03;;;4.20;;
17596;SDS011;8917;50.942;6.946;2023-11-21T00:10:07;6.73;;;4.00;;
17596;SDS011;8917;50.942;6.946;2023-11-21T00:12:35;5.93;;;4.37;;
17596;SDS011;8917;50.942;6.946;2023-11-21T00:15:04;6.10;;;5.17;;
17596;SDS011;8917;50.942;6.946;2023-11-21T00:17:34;5.73;;;4.67;;
17596;SDS011;8917;50.942;6.946;2023-11-21T00:20:01;9.33;;;5.93;;
17596;SDS011;8917;50.942;6.946;2023-11-21T00:22:31;7.37;;;5.20;;
17596;SDS011;8917;50.942;6.946;2023-11-21T00:24:58;8.67;;;5.30;;
17596;SDS011;8917;50.942;6.946;2023-11-21T00:27:26;7.77;;;5.57;;
17596;SDS011;8917;50.942;6.946;2023-11-21T00:29:53;7.17;;;5.33;;
17596;SDS011;8917;50.942;6.946;2023-11-21T00:32:21;6.93;;;5.53;;
17596;SDS011;8917;50.942;6.946;2023-11-21T00:34:49;7.90;;;5.90;;
17596;SDS011;8917;50.942;6.946;2023-11-21T00:37:16;7.20;;;5.77;;
17596;SDS011;8917;50.942;6.946;2023-11-21T00:39:43;9.80;;;6.50;;
17596;SDS011;8917;50.942;6.946;2023-11-21T00:42:10;8.30;;;6.30;;
17596;SDS011;8917;50.942;6.946;2023-11-21T00:44:38;8.00;;;5.97;;
17596;SDS011;8917;50.942;6.946;2023-11-21T00:47:05;7.40;;;5.97;;
17596;SDS011;8917;50.942;6.946;2023-11-21T00:49:34;7.03;;;5.93;;
17596;SDS011;8917;50.942;6.946;2023-11-21T00:52:01;9.60;;;6.37;;
17596;SDS011;8917;50.942;6.946;2023-11-21T00:54:29;8.20;;;5.37;;
17596;SDS011;8917;50.942;6.946;2023-11-21T00:56:56;8.83;;;6.10;;
17596;SDS011;8917;50.942;6.946;2023-11-21T00:59:23;7.63;;;5.73;;
17596;SDS011;8917;50.942;6.946;2023-11-21T01:01:50;10.77;;;6.40;;
17596;SDS011;8917;50.942;6.946;2023-11-21T01:04:19;8.53;;;6.43;;
17596;SDS011;8917;50.942;6.946;2023-11-21T01:06:47;10.80;;;6.30;;
17596;SDS011;8917;50.942;6.946;2023-11-21T01:09:15;8.93;;;6.00;;
17596;SDS011;8917;50.942;6.946;2023-11-21T01:11:43;9.27;;;5.97;;
17596;SDS011;8917;50.942;6.946;2023-11-21T01:14:11;11.20;;;7.70;;
17596;SDS011;8917;50.942;6.946;2023-11-21T01:16:38;10.80;;;6.33;;
17596;SDS011;8917;50.942;6.946;2023-11-21T01:19:05;9.37;;;6.90;;
17596;SDS011;8917;50.942;6.946;2023-11-21T01:21:32;8.33;;;6.20;;
17596;SDS011;8917;50.942;6.946;2023-11-21T01:24:01;9.43;;;6.40;;
17596;SDS011;8917;50.942;6.946;2023-11-21T01:26:30;9.40;;;6.40;;
17596;SDS011;8917;50.942;6.946;2023-11-21T01:28:57;9.63;;;6.27;;
17596;SDS011;8917;50.942;6.946;2023-11-21T01:31:24;11.53;;;6.47;;
17596;SDS011;8917;50.942;6.946;2023-11-21T01:33:54;9.23;;;6.60;;
17596;SDS011;8917;50.942;6.946;2023-11-21T01:36:21;8.73;;;6.13;;
17596;SDS011;8917;50.942;6.946;2023-11-21T01:38:49;6.53;;;5.87;;
17596;SDS011;8917;50.942;6.946;2023-11-21T01:41:17;10.50;;;6.40;;
17596;SDS011;8917;50.942;6.946;2023-11-21T01:43:45;7.63;;;5.97;;
17596;SDS011;8917;50.942;6.946;2023-11-21T01:46:12;8.47;;;6.30;;
17596;SDS011;8917;50.942;6.946;2023-11-21T01:48:40;10.53;;;6.73;;
17596;SDS011;8917;50.942;6.946;2023-11-21T01:51:07;10.97;;;6.57;;
17596;SDS011;8917;50.942;6.946;2023-11-21T01:53:35;7.80;;;6.13;;
17596;SDS011;8917;50.942;6.946;2023-11-21T01:56:03;9.50;;;6.10;;
17596;SDS011;8917;50.942;6.946;2023-11-21T01:58:33;10.47;;;6.37;;
17596;SDS011;8917;50.942;6.946;2023-11-21T02:01:00;7.53;;;6.10;;
17596;SDS011;8917;50.942;6.946;2023-11-21T02:03:28;10.70;;;6.27;;
17596;SDS011;8917;50.942;6.946;2023-11-21T02:05:55;7.97;;;6.10;;
17596;SDS011;8917;50.942;6.946;2023-11-21T02:08:22;8.37;;;5.97;;
17596;SDS011;8917;50.942;6.946;2023-11-21T02:10:49;11.30;;;6.63;;
17596;SDS011;8917;50.942;6.946;2023-11-21T02:13:16;10.83;;;6.77;;
17596;SDS011;8917;50.942;6.946;2023-11-21T02:15:44;10.70;;;6.43;;
17596;SDS011;8917;50.942;6.946;2023-11-21T02:18:12;9.60;;;6.40;;
17596;SDS011;8917;50.942;6.946;2023-11-21T02:20:40;8.37;;;7.17;;
17596;SDS011;8917;50.942;6.946;2023-11-21T02:23:09;11.80;;;7.70;;
17596;SDS011;8917;50.942;6.946;2023-11-21T02:25:37;10.73;;;7.53;;
17596;SDS011;8917;50.942;6.946;2023-11-21T02:28:05;11.80;;;8.40;;
17596;SDS011;8917;50.942;6.946;2023-11-21T02:30:32;12.83;;;9.07;;
17596;SDS011;8917;50.942;6.946;2023-11-21T02:32:59;13.17;;;9.60;;
17596;SDS011;8917;50.942;6.946;2023-11-21T02:35:27;13.53;;;9.73;;
17596;SDS011;8917;50.942;6.946;2023-11-21T02:37:56;13.87;;;9.70;;
17596;SDS011;8917;50.942;6.946;2023-11-21T02:40:24;14.27;;;9.20;;
17596;SDS011;8917;50.942;6.946;2023-11-21T02:42:51;12.07;;;9.40;;
17596;SDS011;8917;50.942;6.946;2023-11-21T02:45:19;11.33;;;9.30;;
17596;SDS011;8917;50.942;6.946;2023-11-21T02:47:47;13.47;;;8.87;;
17596;SDS011;8917;50.942;6.946;2023-11-21T02:50:15;12.43;;;9.97;;
17596;SDS011;8917;50.942;6.946;2023-11-21T02:52:44;16.63;;;10.47;;
17596;SDS011;8917;50.942;6.946;2023-11-21T02:55:11;16.07;;;10.73;;
17596;SDS011;8917;50.942;6.946;2023-11-21T02:57:39;13.60;;;10.20;;
17596;SDS011;8917;50.942;6.946;2023-11-21T03:00:07;13.30;;;8.80;;
17596;SDS011;8917;50.942;6.946;2023-11-21T03:02:34;9.53;;;8.07;;
17596;SDS011;8917;50.942;6.946;2023-11-21T03:05:04;12.03;;;8.10;;
17596;SDS011;8917;50.942;6.946;2023-11-21T03:07:31;13.80;;;7.83;;
17596;SDS011;8917;50.942;6.946;2023-11-21T03:09:58;11.60;;;8.33;;
17596;SDS011;8917;50.942;6.946;2023-11-21T03:12:26;9.93;;;8.23;;
17596;SDS011;8917;50.942;6.946;2023-11-21T03:14:55;10.80;;;7.37;;
17596;SDS011;8917;50.942;6.946;2023-11-21T03:17:23;11.63;;;7.93;;
17596;SDS011;8917;50.942;6.946;2023-11-21T03:19:50;9.93;;;7.13;;
17596;SDS011;8917;50.942;6.946;2023-11-21T03:22:18;12.77;;;7.30;;
17596;SDS011;8917;50.942;6.946;2023-11-21T03:24:47;12.50;;;7.53;;
17596;SDS011;8917;50.942;6.946;2023-11-21T03:27:14;11.90;;;7.80;;
17596;SDS011;8917;50.942;6.946;2023-11-21T03:29:41;10.30;;;7.50;;
17596;SDS011;8917;50.942;6.946;2023-11-21T03:32:11;11.53;;;8.23;;
17596;SDS011;8917;50.942;6.946;2023-11-21T03:34:52;11.80;;;7.83;;
17596;SDS011;8917;50.942;6.946;2023-11-21T03:37:20;11.03;;;8.10;;
17596;SDS011;8917;50.942;6.946;2023-11-21T03:39:47;12.87;;;8.53;;
17596;SDS011;8917;50.942;6.946;2023-11-21T03:42:14;12.30;;;7.07;;
17596;SDS011;8917;50.942;6.946;2023-11-21T03:44:41;11.47;;;8.13;;
17596;SDS011;8917;50.942;6.946;2023-11-21T03:47:10;19.20;;;8.57;;
17596;SDS011;8917;50.942;6.946;2023-11-21T03:49:37;14.90;;;8.97;;
17596;SDS011;8917;50.942;6.946;2023-11-21T03:52:05;13.37;;;8.20;;
17596;SDS011;8917;50.942;6.946;2023-11-21T03:54:34;10.30;;;7.80;;
17596;SDS011;8917;50.942;6.946;2023-11-21T03:57:02;13.70;;;8.33;;
17596;SDS011;8917;50.942;6.946;2023-11-21T03:59:29;11.83;;;7.83;;
17596;SDS011;8917;50.942;6.946;2023-11-21T04:01:56;11.77;;;8.47;;
17596;SDS011;8917;50.942;6.946;2023-11-21T04:04:25;10.50;;;8.53;;
17596;SDS011;8917;50.942;6.946;2023-11-21T04:06:52;12.80;;;9.03;;
17596;SDS011;8917;50.942;6.946;2023-11-21T04:09:19;10.50;;;8.60;;
17596;SDS011;8917;50.942;6.946;2023-11-21T04:11:50;12.53;;;9.27;;
17596;SDS011;8917;50.942;6.946;2023-11-21T04:14:17;13.10;;;9.50;;
17596;SDS011;8917;50.942;6.946;2023-11-21T04:16:46;11.43;;;9.17;;
17596;SDS011;8917;50.942;6.946;2023-11-21T04:19:13;11.37;;;9.20;;
17596;SDS011;8917;50.942;6.946;2023-11-21T04:21:43;13.53;;;9.27;;
17596;SDS011;8917;50.942;6.946;2023-11-21T04:24:11;13.17;;;9.37;;
17596;SDS011;8917;50.942;6.946;2023-11-21T04:26:38;13.50;;;9.20;;
17596;SDS011;8917;50.942;6.946;2023-11-21T04:29:05;11.87;;;8.87;;
17596;SDS011;8917;50.942;6.946;2023-11-21T04:31:32;13.17;;;9.27;;
17596;SDS011;8917;50.942;6.946;2023-11-21T04:33:59;12.30;;;9.27;;
17596;SDS011;8917;50.942;6.946;2023-11-21T04:36:29;14.53;;;9.97;;
17596;SDS011;8917;50.942;6.946;2023-11-21T04:38:58;15.30;;;9.53;;
17596;SDS011;8917;50.942;6.946;2023-11-21T04:41:25;14.90;;;9.70;;
17596;SDS011;8917;50.942;6.946;2023-11-21T04:43:56;14.83;;;9.90;;
17596;SDS011;8917;50.942;6.946;2023-11-21T04:46:25;11.37;;;9.27;;
17596;SDS011;8917;50.942;6.946;2023-11-21T04:48:52;12.03;;;9.23;;
17596;SDS011;8917;50.942;6.946;2023-11-21T04:51:20;11.17;;;9.07;;
17596;SDS011;8917;50.942;6.946;2023-11-21T04:53:47;15.60;;;9.33;;
17596;SDS011;8917;50.942;6.946;2023-11-21T04:56:15;17.03;;;9.80;;
17596;SDS011;8917;50.942;6.946;2023-11-21T04:58:43;13.33;;;9.60;;
17596;SDS011;8917;50.942;6.946;2023-11-21T05:01:10;12.70;;;9.07;;
17596;SDS011;8917;50.942;6.946;2023-11-21T05:03:38;12.33;;;9.80;;
17596;SDS011;8917;50.942;6.946;2023-11-21T05:06:05;14.33;;;9.87;;
17596;SDS011;8917;50.942;6.946;2023-11-21T05:08:32;13.03;;;9.07;;
17596;SDS011;8917;50.942;6.946;2023-11-21T05:11:00;15.70;;;9.03;;
17596;SDS011;8917;50.942;6.946;2023-11-21T05:13:28;12.70;;;9.63;;
17596;SDS011;8917;50.942;6.946;2023-11-21T05:15:56;14.93;;;9.47;;
17596;SDS011;8917;50.942;6.946;2023-11-21T05:18:23;15.30;;;8.60;;
17596;SDS011;8917;50.942;6.946;2023-11-21T05:20:52;11.83;;;8.97;;
17596;SDS011;8917;50.942;6.946;2023-11-21T05:23:19;12.90;;;9.90;;
17596;SDS011;8917;50.942;6.946;2023-11-21T05:25:47;15.93;;;9.97;;
17596;SDS011;8917;50.942;6.946;2023-11-21T05:28:14;15.20;;;9.73;;
17596;SDS011;8917;50.942;6.946;2023-11-21T05:30:42;12.93;;;9.27;;
17596;SDS011;8917;50.942;6.946;2023-11-21T05:33:10;13.40;;;10.03;;
17596;SDS011;8917;50.942;6.946;2023-11-21T05:35:37;15.80;;;9.90;;
17596;SDS011;8917;50.942;6.946;2023-11-21T05:38:04;17.73;;;10.57;;
17596;SDS011;8917;50.942;6.946;2023-11-21T05:40:31;15.03;;;10.37;;
17596;SDS011;8917;50.942;6.946;2023-11-21T05:42:58;16.20;;;9.67;;
17596;SDS011;8917;50.942;6.946;2023-11-21T05:45:26;14.73;;;9.80;;
17596;SDS011;8917;50.942;6.946;2023-11-21T05:47:57;17.30;;;10.73;;
17596;SDS011;8917;50.942;6.946;2023-11-21T05:50:24;16.93;;;11.10;;
17596;SDS011;8917;50.942;6.946;2023-11-21T05:52:51;12.73;;;8.90;;
17596;SDS011;8917;50.942;6.946;2023-11-21T05:55:18;12.03;;;8.60;;
17596;SDS011;8917;50.942;6.946;2023-11-21T05:57:46;14.63;;;8.60;;
17596;SDS011;8917;50.942;6.946;2023-11-21T06:00:14;12.43;;;8.60;;
17596;SDS011;8917;50.942;6.946;2023-11-21T06:02:45;15.77;;;8.90;;
17596;SDS011;8917;50.942;6.946;2023-11-21T06:05:13;12.30;;;8.00;;
17596;SDS011;8917;50.942;6.946;2023-11-21T06:07:41;11.93;;;8.37;;
17596;SDS011;8917;50.942;6.946;2023-11-21T06:10:08;13.70;;;8.50;;
17596;SDS011;8917;50.942;6.946;2023-11-21T06:12:36;11.63;;;8.50;;
17596;SDS011;8917;50.942;6.946;2023-11-21T06:15:05;11.07;;;8.63;;
17596;SDS011;8917;50.942;6.946;2023-11-21T06:17:34;12.40;;;8.00;;
17596;SDS011;8917;50.942;6.946;2023-11-21T06:20:06;16.00;;;9.10;;
17596;SDS011;8917;50.942;6.946;2023-11-21T06:22:36;12.83;;;8.23;;
17596;SDS011;8917;50.942;6.946;2023-11-21T06:25:04;12.17;;;8.60;;
17596;SDS011;8917;50.942;6.946;2023-11-21T06:27:31;11.60;;;7.73;;
17596;SDS011;8917;50.942;6.946;2023-11-21T06:29:59;12.63;;;8.83;;
17596;SDS011;8917;50.942;6.946;2023-11-21T06:32:26;13.43;;;9.43;;
17596;SDS011;8917;50.942;6.946;2023-11-21T06:34:54;13.87;;;8.83;;
17596;SDS011;8917;50.942;6.946;2023-11-21T06:37:27;12.50;;;8.77;;
17596;SDS011;8917;50.942;6.946;2023-11-21T06:39:56;14.13;;;9.07;;
17596;SDS011;8917;50.942;6.946;2023-11-21T06:42:24;14.73;;;9.00;;
17596;SDS011;8917;50.942;6.946;2023-11-21T06:44:51;14.40;;;10.10;;
17596;SDS011;8917;50.942;6.946;2023-11-21T06:47:19;15.90;;;10.13;;
17596;SDS011;8917;50.942;6.946;2023-11-21T06:49:50;15.53;;;10.07;;
17596;SDS011;8917;50.942;6.946;2023-11-21T06:52:17;13.13;;;9.63;;
17596;SDS011;8917;50.942;6.946;2023-11-21T06:54:44;13.90;;;10.77;;
17596;SDS011;8917;50.942;6.946;2023-11-21T06:57:14;17.80;;;11.70;;
17596;SDS011;8917;50.942;6.946;2023-11-21T06:59:41;17.40;;;11.53;;
17596;SDS011;8917;50.942;6.946;2023-11-21T07:02:08;15.07;;;11.03;;
17596;SDS011;8917;50.942;6.946;2023-11-21T07:04:35;16.83;;;11.13;;
17596;SDS011;8917;50.942;6.946;2023-11-21T07:07:03;24.80;;;12.27;;
17596;SDS011;8917;50.942;6.946;2023-11-21T07:09:32;26.93;;;13.10;;
17596;SDS011;8917;50.942;6.946;2023-11-21T07:11:59;30.63;;;13.07;;
17596;SDS011;8917;50.942;6.946;2023-11-21T07:14:28;21.13;;;12.63;;
17596;SDS011;8917;50.942;6.946;2023-11-21T07:16:55;19.90;;;12.23;;
17596;SDS011;8917;50.942;6.946;2023-11-21T07:19:22;22.30;;;17.10;;
17596;SDS011;8917;50.942;6.946;2023-11-21T07:21:49;17.67;;;12.50;;
17596;SDS011;8917;50.942;6.946;2023-11-21T07:24:17;18.07;;;12.43;;
17596;SDS011;8917;50.942;6.946;2023-11-21T07:26:44;17.70;;;12.20;;
17596;SDS011;8917;50.942;6.946;2023-11-21T07:29:11;18.33;;;13.03;;
17596;SDS011;8917;50.942;6.946;2023-11-21T07:31:40;20.20;;;13.47;;
17596;SDS011;8917;50.942;6.946;2023-11-21T07:34:07;21.77;;;13.77;;
17596;SDS011;8917;50.942;6.946;2023-11-21T07:36:34;20.67;;;13.53;;
17596;SDS011;8917;50.942;6.946;2023-11-21T07:39:02;23.53;;;13.47;;
17596;SDS011;8917;50.942;6.946;2023-11-21T07:41:29;21.27;;;14.40;;
17596;SDS011;8917;50.942;6.946;2023-11-21T07:43:57;22.23;;;14.57;;
17596;SDS011;8917;50.942;6.946;2023-11-21T07:46:24;21.10;;;14.03;;
17596;SDS011;8917;50.942;6.946;2023-11-21T07:48:54;22.63;;;15.60;;
17596;SDS011;8917;50.942;6.946;2023-11-21T07:51:21;24.00;;;15.70;;
17596;SDS011;8917;50.942;6.946;2023-11-21T07:53:48;21.63;;;14.20;;
17596;SDS011;8917;50.942;6.946;2023-11-21T07:56:15;21.70;;;14.50;;
17596;SDS011;8917;50.942;6.946;2023-11-21T07:58:45;22.27;;;14.00;;
17596;SDS011;8917;50.942;6.946;2023-11-21T08:01:13;25.50;;;14.93;;
17596;SDS011;8917;50.942;6.946;2023-11-21T08:03:40;22.93;;;14.20;;
17596;SDS011;8917;50.942;6.946;2023-11-21T08:06:10;20.77;;;14.57;;
17596;SDS011;8917;50.942;6.946;2023-11-21T08:08:37;21.43;;;13.90;;
17596;SDS011;8917;50.942;6.946;2023-11-21T08:11:08;23.40;;;15.93;;
17596;SDS011;8917;50.942;6.946;2023-11-21T08:13:36;19.03;;;13.50;;
17596;SDS011;8917;50.942;6.946;2023-11-21T08:16:03;21.20;;;14.30;;
17596;SDS011;8917;50.942;6.946;2023-11-21T08:18:32;21.40;;;14.57;;
17596;SDS011;8917;50.942;6.946;2023-11-21T08:21:00;25.03;;;18.27;;
17596;SDS011;8917;50.942;6.946;2023-11-21T08:23:29;24.87;;;14.47;;
17596;SDS011;8917;50.942;6.946;2023-11-21T08:25:57;27.27;;;15.50;;
17596;SDS011;8917;50.942;6.946;2023-11-21T08:28:24;25.20;;;15.60;;
17596;SDS011;8917;50.942;6.946;2023-11-21T08:30:52;24.30;;;15.43;;
17596;SDS011;8917;50.942;6.946;2023-11-21T08:33:19;25.03;;;16.10;;
17596;SDS011;8917;50.942;6.946;2023-11-21T08:35:46;23.57;;;14.93;;
17596;SDS011;8917;50.942;6.946;2023-11-21T08:38:13;22.07;;;14.60;;
17596;SDS011;8917;50.942;6.946;2023-11-21T08:40:42;25.13;;;14.37;;
17596;SDS011;8917;50.942;6.946;2023-11-21T08:43:09;21.53;;;14.20;;
17596;SDS011;8917;50.942;6.946;2023-11-21T08:45:37;24.17;;;14.63;;
17596;SDS011;8917;50.942;6.946;2023-11-21T08:48:04;25.10;;;15.03;;
17596;SDS011;8917;50.942;6.946;2023-11-21T08:50:32;25.10;;;15.80;;
17596;SDS011;8917;50.942;6.946;2023-11-21T08:52:59;27.13;;;15.57;;
17596;SDS011;8917;50.942;6.946;2023-11-21T08:55:26;23.97;;;16.03;;
17596;SDS011;8917;50.942;6.946;2023-11-21T08:57:55;20.47;;;14.50;;
17596;SDS011;8917;50.942;6.946;2023-11-21T09:00:24;22.10;;;15.10;;
17596;SDS011;8917;50.942;6.946;2023-11-21T09:02:51;24.23;;;15.63;;
17596;SDS011;8917;50.942;6.946;2023-11-21T09:05:18;26.50;;;15.80;;
17596;SDS011;8917;50.942;6.946;2023-11-21T09:07:45;21.77;;;14.77;;
17596;SDS011;8917;50.942;6.946;2023-11-21T09:10:13;21.73;;;14.90;;
17596;SDS011;8917;50.942;6.946;2023-11-21T09:12:41;24.77;;;15.90;;
17596;SDS011;8917;50.942;6.946;2023-11-21T09:15:10;27.03;;;18.00;;
17596;SDS011;8917;50.942;6.946;2023-11-21T09:17:38;26.67;;;17.03;;
17596;SDS011;8917;50.942;6.946;2023-11-21T09:20:06;29.70;;;17.77;;
17596;SDS011;8917;50.942;6.946;2023-11-21T09:22:35;27.43;;;15.90;;
17596;SDS011;8917;50.942;6.946;2023-11-21T09:25:02;31.53;;;21.30;;
17596;SDS011;8917;50.942;6.946;2023-11-21T09:27:31;26.20;;;16.90;;
17596;SDS011;8917;50.942;6.946;2023-11-21T09:29:58;31.87;;;16.37;;
17596;SDS011;8917;50.942;6.946;2023-11-21T09:32:27;24.30;;;16.93;;
17596;SDS011;8917;50.942;6.946;2023-11-21T09:34:54;28.87;;;17.93;;
17596;SDS011;8917;50.942;6.946;2023-11-21T09:37:23;27.00;;;17.40;;
17596;SDS011;8917;50.942;6.946;2023-11-21T09:39:52;27.90;;;16.53;;
17596;SDS011;8917;50.942;6.946;2023-11-21T09:42:29;28.47;;;17.20;;
17596;SDS011;8917;50.942;6.946;2023-11-21T09:44:58;27.30;;;16.83;;
17596;SDS011;8917;50.942;6.946;2023-11-21T09:47:31;27.03;;;17.67;;
17596;SDS011;8917;50.942;6.946;2023-11-21T09:50:01;26.20;;;17.07;;
17596;SDS011;8917;50.942;6.946;2023-11-21T09:52:28;26.97;;;17.67;;
17596;SDS011;8917;50.942;6.946;2023-11-21T09:54:57;28.50;;;17.10;;
17596;SDS011;8917;50.942;6.946;2023-11-21T09:57:25;32.47;;;17.93;;
17596;SDS011;8917;50.942;6.946;2023-11-21T09:59:54;28.20;;;16.77;;
17596;SDS011;8917;50.942;6.946;2023-11-21T10:02:24;24.17;;;16.17;;
17596;SDS011;8917;50.942;6.946;2023-11-21T10:04:55;29.77;;;17.17;;
17596;SDS011;8917;50.942;6.946;2023-11-21T10:07:24;27.13;;;16.70;;
17596;SDS011;8917;50.942;6.946;2023-11-21T10:09:51;27.37;;;14.47;;
17596;SDS011;8917;50.942;6.946;2023-11-21T10:12:19;22.40;;;13.97;;
17596;SDS011;8917;50.942;6.946;2023-11-21T10:14:47;20.63;;;13.43;;
17596;SDS011;8917;50.942;6.946;2023-11-21T10:17:18;21.47;;;14.60;;
17596;SDS011;8917;50.942;6.946;2023-11-21T10:19:45;23.03;;;13.50;;
17596;SDS011;8917;50.942;6.946;2023-11-21T10:22:15;23.50;;;14.17;;
17596;SDS011;8917;50.942;6.946;2023-11-21T10:24:42;21.40;;;13.90;;
17596;SDS011;8917;50.942;6.946;2023-11-21T10:27:09;23.73;;;15.40;;
17596;SDS011;8917;50.942;6.946;2023-11-21T10:29:38;35.80;;;16.40;;
17596;SDS011;8917;50.942;6.946;2023-11-21T10:32:07;24.60;;;14.60;;
17596;SDS011;8917;50.942;6.946;2023-11-21T10:34:34;24.23;;;13.87;;
17596;SDS011;8917;50.942;6.946;2023-11-21T10:37:10;22.60;;;15.00;;
17596;SDS011;8917;50.942;6.946;2023-11-21T10:39:39;24.70;;;14.90;;
17596;SDS011;8917;50.942;6.946;2023-11-21T10:42:09;26.33;;;14.63;;
17596;SDS011;8917;50.942;6.946;2023-11-21T10:44:36;25.33;;;16.23;;
17596;SDS011;8917;50.942;6.946;2023-11-21T10:47:03;26.00;;;15.10;;
17596;SDS011;8917;50.942;6.946;2023-11-21T10:49:30;25.03;;;16.20;;
17596;SDS011;8917;50.942;6.946;2023-11-21T10:51:59;23.40;;;15.20;;
17596;SDS011;8917;50.942;6.946;2023-11-21T10:54:26;30.63;;;16.63;;
17596;SDS011;8917;50.942;6.946;2023-11-21T10:56:56;24.23;;;14.93;;
17596;SDS011;8917;50.942;6.946;2023-11-21T10:59:23;25.13;;;15.13;;
17596;SDS011;8917;50.942;6.946;2023-11-21T11:01:52;25.00;;;14.40;;
17596;SDS011;8917;50.942;6.946;2023-11-21T11:04:20;25.20;;;16.47;;
17596;SDS011;8917;50.942;6.946;2023-11-21T11:06:49;25.13;;;15.57;;
17596;SDS011;8917;50.942;6.946;2023-11-21T11:09:17;26.57;;;15.10;;
17596;SDS011;8917;50.942;6.946;2023-11-21T11:11:44;35.87;;;22.80;;
17596;SDS011;8917;50.942;6.946;2023-11-21T11:14:13;25.43;;;14.87;;
17596;SDS011;8917;50.942;6.946;2023-11-21T11:16:41;26.17;;;15.07;;
17596;SDS011;8917;50.942;6.946;2023-11-21T11:19:10;28.67;;;15.87;;
17596;SDS011;8917;50.942;6.946;2023-11-21T11:21:42;28.80;;;15.30;;
17596;SDS011;8917;50.942;6.946;2023-11-21T11:24:13;26.53;;;16.03;;
17596;SDS011;8917;50.942;6.946;2023-11-21T11:26:46;29.33;;;15.53;;
17596;SDS011;8917;50.942;6.946;2023-11-21T11:29:18;28.60;;;17.93;;
17596;SDS011;8917;50.942;6.946;2023-11-21T11:31:50;33.80;;;18.07;;
17596;SDS011;8917;50.942;6.946;2023-11-21T11:34:23;25.57;;;15.33;;
17596;SDS011;8917;50.942;6.946;2023-11-21T11:36:55;25.53;;;15.50;;
17596;SDS011;8917;50.942;6.946;2023-11-21T11:39:26;24.73;;;15.97;;
17596;SDS011;8917;50.942;6.946;2023-11-21T11:41:55;24.27;;;15.63;;
17596;SDS011;8917;50.942;6.946;2023-11-21T11:47:14;30.73;;;17.80;;
17596;SDS011;8917;50.942;6.946;2023-11-21T11:49:54;26.13;;;15.67;;
17596;SDS011;8917;50.942;6.946;2023-11-21T11:52:34;23.80;;;15.27;;
17596;SDS011;8917;50.942;6.946;2023-11-21T11:55:02;26.50;;;15.37;;
17596;SDS011;8917;50.942;6.946;2023-11-21T11:57:30;24.10;;;15.53;;
17596;SDS011;8917;50.942;6.946;2023-11-21T12:00:07;26.20;;;14.83;;
17596;SDS011;8917;50.942;6.946;2023-11-21T12:02:37;25.67;;;14.50;;
17596;SDS011;8917;50.942;6.946;2023-11-21T12:05:08;23.37;;;13.80;;
17596;SDS011;8917;50.942;6.946;2023-11-21T12:07:41;24.53;;;14.03;;
17596;SDS011;8917;50.942;6.946;2023-11-21T12:10:10;24.17;;;14.10;;
17596;SDS011;8917;50.942;6.946;2023-11-21T12:12:41;27.03;;;15.17;;
17596;SDS011;8917;50.942;6.946;2023-11-21T12:15:09;27.07;;;14.87;;
17596;SDS011;8917;50.942;6.946;2023-11-21T12:17:38;21.60;;;13.50;;
17596;SDS011;8917;50.942;6.946;2023-11-21T12:20:05;25.70;;;14.30;;
17596;SDS011;8917;50.942;6.946;2023-11-21T12:22:39;24.37;;;14.53;;
17596;SDS011;8917;50.942;6.946;2023-11-21T12:25:07;26.87;;;14.97;;
17596;SDS011;8917;50.942;6.946;2023-11-21T12:27:35;23.43;;;14.53;;
17596;SDS011;8917;50.942;6.946;2023-11-21T12:30:02;24.87;;;14.77;;
17596;SDS011;8917;50.942;6.946;2023-11-21T12:32:30;24.50;;;14.30;;
17596;SDS011;8917;50.942;6.946;2023-11-21T12:34:58;25.37;;;14.83;;
17596;SDS011;8917;50.942;6.946;2023-11-21T12:37:28;20.90;;;14.57;;
17596;SDS011;8917;50.942;6.946;2023-11-21T12:39:55;25.70;;;16.00;;
17596;SDS011;8917;50.942;6.946;2023-11-21T12:42:23;27.87;;;16.33;;
17596;SDS011;8917;50.942;6.946;2023-11-21T12:47:33;33.03;;;16.80;;
17596;SDS011;8917;50.942;6.946;2023-11-21T12:50:03;29.87;;;17.97;;
17596;SDS011;8917;50.942;6.946;2023-11-21T12:52:31;31.60;;;19.23;;
17596;SDS011;8917;50.942;6.946;2023-11-21T12:54:59;30.13;;;18.30;;
17596;SDS011;8917;50.942;6.946;2023-11-21T12:57:27;39.80;;;24.80;;
17596;SDS011;8917;50.942;6.946;2023-11-21T12:59:56;38.07;;;25.23;;
17596;SDS011;8917;50.942;6.946;2023-11-21T13:02:25;27.43;;;17.83;;
17596;SDS011;8917;50.942;6.946;2023-11-21T13:04:53;26.97;;;18.93;;
17596;SDS011;8917;50.942;6.946;2023-11-21T13:07:24;28.07;;;17.97;;
17596;SDS011;8917;50.942;6.946;2023-11-21T13:09:52;26.47;;;16.63;;
17596;SDS011;8917;50.942;6.946;2023-11-21T13:12:23;28.03;;;17.87;;
17596;SDS011;8917;50.942;6.946;2023-11-21T13:14:51;31.73;;;18.30;;
17596;SDS011;8917;50.942;6.946;2023-11-21T13:17:18;30.57;;;17.87;;
17596;SDS011;8917;50.942;6.946;2023-11-21T13:19:47;28.90;;;18.30;;
17596;SDS011;8917;50.942;6.946;2023-11-21T13:22:15;28.10;;;17.03;;
17596;SDS011;8917;50.942;6.946;2023-11-21T13:24:44;28.47;;;17.97;;
17596;SDS011;8917;50.942;6.946;2023-11-21T13:27:12;27.17;;;17.57;;
17596;SDS011;8917;50.942;6.946;2023-11-21T13:29:40;31.73;;;18.87;;
17596;SDS011;8917;50.942;6.946;2023-11-21T13:32:07;36.13;;;22.93;;
17596;SDS011;8917;50.942;6.946;2023-11-21T13:34:37;33.63;;;19.97;;
17596;SDS011;8917;50.942;6.946;2023-11-21T13:37:04;30.87;;;19.07;;
17596;SDS011;8917;50.942;6.946;2023-11-21T13:39:32;40.70;;;22.53;;
17596;SDS011;8917;50.942;6.946;2023-11-21T13:42:02;29.73;;;17.90;;
17596;SDS011;8917;50.942;6.946;2023-11-21T13:44:30;29.63;;;17.07;;
17596;SDS011;8917;50.942;6.946;2023-11-21T13:47:03;28.53;;;18.63;;
17596;SDS011;8917;50.942;6.946;2023-11-21T13:49:31;30.70;;;18.27;;
17596;SDS011;8917;50.942;6.946;2023-11-21T13:52:05;31.30;;;18.40;;
17596;SDS011;8917;50.942;6.946;2023-11-21T13:54:32;30.90;;;18.13;;
17596;SDS011;8917;50.942;6.946;2023-11-21T13:57:01;29.13;;;16.97;;
17596;SDS011;8917;50.942;6.946;2023-11-21T13:59:30;30.83;;;18.67;;
17596;SDS011;8917;50.942;6.946;2023-11-21T14:01:58;30.07;;;18.67;;
17596;SDS011;8917;50.942;6.946;2023-11-21T14:04:41;33.53;;;21.33;;
17596;SDS011;8917;50.942;6.946;2023-11-21T14:07:20;37.63;;;18.97;;
17596;SDS011;8917;50.942;6.946;2023-11-21T14:09:55;28.93;;;18.37;;
17596;SDS011;8917;50.942;6.946;2023-11-21T14:12:24;31.10;;;18.23;;
17596;SDS011;8917;50.942;6.946;2023-11-21T14:14:52;29.97;;;16.07;;
17596;SDS011;8917;50.942;6.946;2023-11-21T14:17:22;31.40;;;18.37;;
17596;SDS011;8917;50.942;6.946;2023-11-21T14:19:49;32.93;;;18.87;;
17596;SDS011;8917;50.942;6.946;2023-11-21T14:22:18;30.03;;;17.50;;
17596;SDS011;8917;50.942;6.946;2023-11-21T14:24:46;29.67;;;17.30;;
17596;SDS011;8917;50.942;6.946;2023-11-21T14:27:15;29.60;;;18.17;;
17596;SDS011;8917;50.942;6.946;2023-11-21T14:29:44;32.00;;;17.70;;
17596;SDS011;8917;50.942;6.946;2023-11-21T14:32:11;27.90;;;17.80;;
17596;SDS011;8917;50.942;6.946;2023-11-21T14:34:39;31.60;;;17.03;;
17596;SDS011;8917;50.942;6.946;2023-11-21T14:37:08;30.50;;;18.63;;
17596;SDS011;8917;50.942;6.946;2023-11-21T14:39:38;34.87;;;19.93;;
17596;SDS011;8917;50.942;6.946;2023-11-21T14:42:09;32.13;;;19.50;;
17596;SDS011;8917;50.942;6.946;2023-11-21T14:44:40;31.57;;;17.90;;
17596;SDS011;8917;50.942;6.946;2023-11-21T14:47:09;32.63;;;18.30;;
17596;SDS011;8917;50.942;6.946;2023-11-21T14:49:40;30.93;;;17.50;;
17596;SDS011;8917;50.942;6.946;2023-11-21T14:52:17;34.03;;;17.97;;
17596;SDS011;8917;50.942;6.946;2023-11-21T14:54:57;34.93;;;18.37;;